sensor_id;sensor_type;location;lat;lon;timestamp;temperature;humidity
13835;DHT22;6988;52.614;13.500;2023-06-14T00:01:08;13.10;99.90
13835;DHT22;6988;52.614;13.500;2023-06-14T00:06:00;13.10;99.90
13835;DHT22;6988;52.614;13.500;2023-06-14T00:10:52;13.00;99.90
13835;DHT22;6988;52.614;13.500;2023-06-14T00:15:44;13.00;99.90
13835;DHT22;6988;52.614;13.500;2023-06-14T00:20:38;13.00;99.90
13835;DHT22;6988;52.614;13.500;2023-06-14T00:25:33;12.90;99.90
13835;DHT22;6988;52.614;13.500;2023-06-14T00:30:25;12.80;99.90
13835;DHT22;6988;52.614;13.500;2023-06-14T00:35:20;12.70;99.90
13835;DHT22;6988;52.614;13.500;2023-06-14T00:40:14;12.60;99.90
13835;DHT22;6988;52.614;13.500;2023-06-14T00:45:06;12.40;99.90
13835;DHT22;6988;52.614;13.500;2023-06-14T00:50:00;12.30;99.90
13835;DHT22;6988;52.614;13.500;2023-06-14T00:54:53;12.20;99.90
13835;DHT22;6988;52.614;13.500;2023-06-14T00:59:48;12.20;99.90
13835;DHT22;6988;52.614;13.500;2023-06-14T01:04:41;12.20;99.90
13835;DHT22;6988;52.614;13.500;2023-06-14T01:09:47;12.20;99.90
13835;DHT22;6988;52.614;13.500;2023-06-14T01:14:44;12.20;99.90
13835;DHT22;6988;52.614;13.500;2023-06-14T01:19:38;12.20;99.90
13835;DHT22;6988;52.614;13.500;2023-06-14T01:24:34;12.20;99.90
13835;DHT22;6988;52.614;13.500;2023-06-14T01:29:27;12.20;99.90
13835;DHT22;6988;52.614;13.500;2023-06-14T01:34:22;12.20;99.90
13835;DHT22;6988;52.614;13.500;2023-06-14T01:39:16;12.20;99.90
13835;DHT22;6988;52.614;13.500;2023-06-14T01:44:12;12.20;99.90
13835;DHT22;6988;52.614;13.500;2023-06-14T01:49:08;12.10;99.90
13835;DHT22;6988;52.614;13.500;2023-06-14T01:54:00;12.10;99.90
13835;DHT22;6988;52.614;13.500;2023-06-14T01:58:52;12.00;99.90
13835;DHT22;6988;52.614;13.500;2023-06-14T02:03:46;11.90;99.90
13835;DHT22;6988;52.614;13.500;2023-06-14T02:08:40;11.80;99.90
13835;DHT22;6988;52.614;13.500;2023-06-14T02:13:32;11.80;99.90
13835;DHT22;6988;52.614;13.500;2023-06-14T02:18:24;11.80;99.90
13835;DHT22;6988;52.614;13.500;2023-06-14T02:23:18;11.70;99.90
13835;DHT22;6988;52.614;13.500;2023-06-14T02:28:10;11.70;99.90
13835;DHT22;6988;52.614;13.500;2023-06-14T02:33:03;11.70;99.90
13835;DHT22;6988;52.614;13.500;2023-06-14T02:37:56;11.60;99.90
13835;DHT22;6988;52.614;13.500;2023-06-14T02:42:50;11.50;99.90
13835;DHT22;6988;52.614;13.500;2023-06-14T02:47:42;11.50;99.90
13835;DHT22;6988;52.614;13.500;2023-06-14T02:52:37;11.50;99.90
13835;DHT22;6988;52.614;13.500;2023-06-14T02:57:29;11.40;99.90
13835;DHT22;6988;52.614;13.500;2023-06-14T03:02:22;11.40;99.90
13835;DHT22;6988;52.614;13.500;2023-06-14T03:07:14;11.40;99.90
13835;DHT22;6988;52.614;13.500;2023-06-14T03:12:13;11.50;99.90
13835;DHT22;6988;52.614;13.500;2023-06-14T03:17:06;11.50;99.90
13835;DHT22;6988;52.614;13.500;2023-06-14T03:22:01;11.50;99.90
13835;DHT22;6988;52.614;13.500;2023-06-14T03:26:55;11.50;99.90
13835;DHT22;6988;52.614;13.500;2023-06-14T03:31:59;11.50;99.90
13835;DHT22;6988;52.614;13.500;2023-06-14T03:37:00;11.60;99.90
13835;DHT22;6988;52.614;13.500;2023-06-14T03:41:54;11.60;99.90
13835;DHT22;6988;52.614;13.500;2023-06-14T03:46:46;11.70;99.90
13835;DHT22;6988;52.614;13.500;2023-06-14T03:51:39;11.70;99.90
13835;DHT22;6988;52.614;13.500;2023-06-14T03:56:33;11.80;99.90
13835;DHT22;6988;52.614;13.500;2023-06-14T04:01:27;11.90;99.90
13835;DHT22;6988;52.614;13.500;2023-06-14T04:06:23;12.00;99.90
13835;DHT22;6988;52.614;13.500;2023-06-14T04:11:23;12.10;99.90
13835;DHT22;6988;52.614;13.500;2023-06-14T04:16:18;12.20;99.90
13835;DHT22;6988;52.614;13.500;2023-06-14T04:21:10;12.20;99.90
13835;DHT22;6988;52.614;13.500;2023-06-14T04:26:02;12.40;99.90
13835;DHT22;6988;52.614;13.500;2023-06-14T04:30:55;12.50;99.90
13835;DHT22;6988;52.614;13.500;2023-06-14T04:35:49;12.60;99.90
13835;DHT22;6988;52.614;13.500;2023-06-14T04:40:45;12.80;99.90
13835;DHT22;6988;52.614;13.500;2023-06-14T04:45:40;13.00;99.90
13835;DHT22;6988;52.614;13.500;2023-06-14T04:50:36;13.20;99.90
13835;DHT22;6988;52.614;13.500;2023-06-14T04:55:30;13.40;99.90
13835;DHT22;6988;52.614;13.500;2023-06-14T05:00:23;13.60;99.90
13835;DHT22;6988;52.614;13.500;2023-06-14T05:05:15;13.80;99.90
13835;DHT22;6988;52.614;13.500;2023-06-14T05:10:08;14.00;99.90
13835;DHT22;6988;52.614;13.500;2023-06-14T05:15:03;14.00;99.90
13835;DHT22;6988;52.614;13.500;2023-06-14T05:19:55;14.10;99.90
13835;DHT22;6988;52.614;13.500;2023-06-14T05:24:47;14.20;99.90
13835;DHT22;6988;52.614;13.500;2023-06-14T05:29:39;14.30;99.90
13835;DHT22;6988;52.614;13.500;2023-06-14T05:34:34;14.40;99.90
13835;DHT22;6988;52.614;13.500;2023-06-14T05:39:25;14.60;99.90
13835;DHT22;6988;52.614;13.500;2023-06-14T05:44:17;14.80;99.90
13835;DHT22;6988;52.614;13.500;2023-06-14T05:49:09;14.90;99.90
13835;DHT22;6988;52.614;13.500;2023-06-14T05:54:03;15.10;99.90
13835;DHT22;6988;52.614;13.500;2023-06-14T05:58:55;15.20;99.90
13835;DHT22;6988;52.614;13.500;2023-06-14T06:03:47;15.40;99.90
13835;DHT22;6988;52.614;13.500;2023-06-14T06:08:39;15.40;99.90
13835;DHT22;6988;52.614;13.500;2023-06-14T06:13:32;15.50;99.90
13835;DHT22;6988;52.614;13.500;2023-06-14T06:18:25;15.60;99.90
13835;DHT22;6988;52.614;13.500;2023-06-14T06:23:17;15.60;99.90
13835;DHT22;6988;52.614;13.500;2023-06-14T06:28:09;15.70;99.90
13835;DHT22;6988;52.614;13.500;2023-06-14T06:33:03;15.80;99.90
13835;DHT22;6988;52.614;13.500;2023-06-14T06:37:54;15.80;99.90
13835;DHT22;6988;52.614;13.500;2023-06-14T06:42:47;16.00;99.90
13835;DHT22;6988;52.614;13.500;2023-06-14T06:47:42;16.10;99.90
13835;DHT22;6988;52.614;13.500;2023-06-14T06:52:35;16.20;99.90
13835;DHT22;6988;52.614;13.500;2023-06-14T06:57:27;16.50;99.90
13835;DHT22;6988;52.614;13.500;2023-06-14T07:02:19;16.80;99.90
13835;DHT22;6988;52.614;13.500;2023-06-14T07:07:11;17.00;99.90
13835;DHT22;6988;52.614;13.500;2023-06-14T07:12:05;17.20;99.90
13835;DHT22;6988;52.614;13.500;2023-06-14T07:16:58;17.30;99.90
13835;DHT22;6988;52.614;13.500;2023-06-14T07:21:50;17.40;99.90
13835;DHT22;6988;52.614;13.500;2023-06-14T07:26:44;17.50;99.90
13835;DHT22;6988;52.614;13.500;2023-06-14T07:31:37;17.60;99.90
13835;DHT22;6988;52.614;13.500;2023-06-14T07:36:29;17.90;99.90
13835;DHT22;6988;52.614;13.500;2023-06-14T07:41:21;18.00;99.90
13835;DHT22;6988;52.614;13.500;2023-06-14T07:46:14;18.40;99.90
13835;DHT22;6988;52.614;13.500;2023-06-14T07:51:08;18.80;99.90
13835;DHT22;6988;52.614;13.500;2023-06-14T07:56:00;19.20;99.90
13835;DHT22;6988;52.614;13.500;2023-06-14T08:00:53;19.60;99.90
13835;DHT22;6988;52.614;13.500;2023-06-14T08:05:45;20.00;99.90
13835;DHT22;6988;52.614;13.500;2023-06-14T08:10:38;20.20;99.90
13835;DHT22;6988;52.614;13.500;2023-06-14T08:15:30;20.40;99.90
13835;DHT22;6988;52.614;13.500;2023-06-14T08:20:22;21.10;99.90
13835;DHT22;6988;52.614;13.500;2023-06-14T08:25:15;22.00;99.90
13835;DHT22;6988;52.614;13.500;2023-06-14T08:30:09;22.00;99.90
13835;DHT22;6988;52.614;13.500;2023-06-14T08:35:03;21.60;99.90
13835;DHT22;6988;52.614;13.500;2023-06-14T08:39:56;21.50;99.90
13835;DHT22;6988;52.614;13.500;2023-06-14T08:44:48;21.40;99.90
13835;DHT22;6988;52.614;13.500;2023-06-14T08:49:42;21.40;99.90
13835;DHT22;6988;52.614;13.500;2023-06-14T08:54:37;21.30;99.90
13835;DHT22;6988;52.614;13.500;2023-06-14T08:59:34;21.30;99.90
13835;DHT22;6988;52.614;13.500;2023-06-14T09:04:29;21.30;99.90
13835;DHT22;6988;52.614;13.500;2023-06-14T09:09:24;21.30;99.90
13835;DHT22;6988;52.614;13.500;2023-06-14T09:14:18;21.40;99.90
13835;DHT22;6988;52.614;13.500;2023-06-14T09:19:14;21.60;99.90
13835;DHT22;6988;52.614;13.500;2023-06-14T09:24:13;21.90;99.90
13835;DHT22;6988;52.614;13.500;2023-06-14T09:29:08;21.90;99.90
13835;DHT22;6988;52.614;13.500;2023-06-14T09:34:02;21.60;99.90
13835;DHT22;6988;52.614;13.500;2023-06-14T09:38:56;21.70;99.90
13835;DHT22;6988;52.614;13.500;2023-06-14T09:43:49;21.80;99.90
13835;DHT22;6988;52.614;13.500;2023-06-14T09:48:43;21.80;99.90
13835;DHT22;6988;52.614;13.500;2023-06-14T09:53:36;21.80;99.90
13835;DHT22;6988;52.614;13.500;2023-06-14T09:58:29;21.90;99.90
13835;DHT22;6988;52.614;13.500;2023-06-14T10:03:28;21.90;99.90
13835;DHT22;6988;52.614;13.500;2023-06-14T10:08:24;21.80;99.90
13835;DHT22;6988;52.614;13.500;2023-06-14T10:13:19;21.60;99.90
13835;DHT22;6988;52.614;13.500;2023-06-14T10:18:20;21.60;99.90
13835;DHT22;6988;52.614;13.500;2023-06-14T10:23:23;21.70;99.90
13835;DHT22;6988;52.614;13.500;2023-06-14T10:28:18;21.80;99.90
13835;DHT22;6988;52.614;13.500;2023-06-14T10:33:15;21.90;99.90
13835;DHT22;6988;52.614;13.500;2023-06-14T10:38:08;21.90;99.90
13835;DHT22;6988;52.614;13.500;2023-06-14T10:43:21;22.20;99.90
13835;DHT22;6988;52.614;13.500;2023-06-14T10:48:29;23.20;99.90
13835;DHT22;6988;52.614;13.500;2023-06-14T10:53:24;23.80;99.90
13835;DHT22;6988;52.614;13.500;2023-06-14T10:58:17;23.80;99.90
13835;DHT22;6988;52.614;13.500;2023-06-14T11:03:50;24.30;99.90
13835;DHT22;6988;52.614;13.500;2023-06-14T11:09:09;24.80;99.90
13835;DHT22;6988;52.614;13.500;2023-06-14T11:14:14;24.80;98.80
13835;DHT22;6988;52.614;13.500;2023-06-14T11:19:06;25.10;99.90
13835;DHT22;6988;52.614;13.500;2023-06-14T11:23:59;25.50;99.40
13835;DHT22;6988;52.614;13.500;2023-06-14T11:28:55;25.30;97.10
13835;DHT22;6988;52.614;13.500;2023-06-14T11:33:51;25.40;98.50
13835;DHT22;6988;52.614;13.500;2023-06-14T11:38:45;25.80;97.00
13835;DHT22;6988;52.614;13.500;2023-06-14T11:43:37;25.70;95.90
13835;DHT22;6988;52.614;13.500;2023-06-14T11:48:38;25.80;95.90
13835;DHT22;6988;52.614;13.500;2023-06-14T11:53:34;26.40;95.30
13835;DHT22;6988;52.614;13.500;2023-06-14T11:58:26;27.00;92.70
13835;DHT22;6988;52.614;13.500;2023-06-14T12:03:22;27.30;92.80
13835;DHT22;6988;52.614;13.500;2023-06-14T12:08:15;27.40;89.10
13835;DHT22;6988;52.614;13.500;2023-06-14T12:13:11;27.50;88.60
13835;DHT22;6988;52.614;13.500;2023-06-14T12:18:05;27.40;88.40
13835;DHT22;6988;52.614;13.500;2023-06-14T12:22:59;27.50;90.50
13835;DHT22;6988;52.614;13.500;2023-06-14T12:27:53;28.40;89.10
13835;DHT22;6988;52.614;13.500;2023-06-14T12:32:48;28.90;82.80
13835;DHT22;6988;52.614;13.500;2023-06-14T12:37:42;29.10;82.90
13835;DHT22;6988;52.614;13.500;2023-06-14T12:42:34;29.50;72.40
13835;DHT22;6988;52.614;13.500;2023-06-14T12:47:26;30.10;74.60
13835;DHT22;6988;52.614;13.500;2023-06-14T12:52:19;29.90;72.80
13835;DHT22;6988;52.614;13.500;2023-06-14T12:57:11;28.90;71.90
13835;DHT22;6988;52.614;13.500;2023-06-14T13:02:16;29.20;72.80
13835;DHT22;6988;52.614;13.500;2023-06-14T13:07:09;29.20;68.00
13835;DHT22;6988;52.614;13.500;2023-06-14T13:12:03;28.60;69.00
13835;DHT22;6988;52.614;13.500;2023-06-14T13:16:56;28.80;67.30
13835;DHT22;6988;52.614;13.500;2023-06-14T13:21:48;28.80;63.80
13835;DHT22;6988;52.614;13.500;2023-06-14T13:26:40;28.60;63.80
13835;DHT22;6988;52.614;13.500;2023-06-14T13:31:34;28.40;64.70
13835;DHT22;6988;52.614;13.500;2023-06-14T13:36:25;28.40;64.30
13835;DHT22;6988;52.614;13.500;2023-06-14T13:41:17;28.20;65.40
13835;DHT22;6988;52.614;13.500;2023-06-14T13:46:09;27.80;67.00
13835;DHT22;6988;52.614;13.500;2023-06-14T13:51:02;27.10;64.20
13835;DHT22;6988;52.614;13.500;2023-06-14T13:55:55;26.80;65.70
13835;DHT22;6988;52.614;13.500;2023-06-14T14:00:47;26.70;63.70
13835;DHT22;6988;52.614;13.500;2023-06-14T14:05:39;26.70;65.90
13835;DHT22;6988;52.614;13.500;2023-06-14T14:10:32;26.70;72.80
13835;DHT22;6988;52.614;13.500;2023-06-14T14:15:24;26.90;76.40
13835;DHT22;6988;52.614;13.500;2023-06-14T14:20:16;27.30;74.40
13835;DHT22;6988;52.614;13.500;2023-06-14T14:25:08;27.20;75.60
13835;DHT22;6988;52.614;13.500;2023-06-14T14:30:02;26.50;73.90
13835;DHT22;6988;52.614;13.500;2023-06-14T14:34:54;26.20;76.70
13835;DHT22;6988;52.614;13.500;2023-06-14T14:39:49;25.60;76.70
13835;DHT22;6988;52.614;13.500;2023-06-14T14:44:42;25.20;78.70
13835;DHT22;6988;52.614;13.500;2023-06-14T14:49:36;24.90;80.60
13835;DHT22;6988;52.614;13.500;2023-06-14T14:54:28;24.60;82.30
13835;DHT22;6988;52.614;13.500;2023-06-14T14:59:23;24.50;82.30
13835;DHT22;6988;52.614;13.500;2023-06-14T15:04:15;24.20;82.50
13835;DHT22;6988;52.614;13.500;2023-06-14T15:09:08;24.10;84.40
13835;DHT22;6988;52.614;13.500;2023-06-14T15:14:00;24.00;85.50
13835;DHT22;6988;52.614;13.500;2023-06-14T15:18:52;24.10;86.80
13835;DHT22;6988;52.614;13.500;2023-06-14T15:23:43;24.80;85.10
13835;DHT22;6988;52.614;13.500;2023-06-14T15:28:37;25.20;81.70
13835;DHT22;6988;52.614;13.500;2023-06-14T15:33:28;25.00;82.00
13835;DHT22;6988;52.614;13.500;2023-06-14T15:38:20;24.80;84.80
13835;DHT22;6988;52.614;13.500;2023-06-14T15:43:13;24.60;82.70
13835;DHT22;6988;52.614;13.500;2023-06-14T15:48:06;24.40;82.50
13835;DHT22;6988;52.614;13.500;2023-06-14T15:52:58;24.10;84.20
13835;DHT22;6988;52.614;13.500;2023-06-14T15:57:50;23.90;86.80
13835;DHT22;6988;52.614;13.500;2023-06-14T16:02:42;23.60;88.10
13835;DHT22;6988;52.614;13.500;2023-06-14T16:07:35;23.50;87.50
13835;DHT22;6988;52.614;13.500;2023-06-14T16:12:27;23.20;89.00
13835;DHT22;6988;52.614;13.500;2023-06-14T16:17:18;23.30;88.00
13835;DHT22;6988;52.614;13.500;2023-06-14T16:22:10;23.00;89.00
13835;DHT22;6988;52.614;13.500;2023-06-14T16:27:04;22.90;90.00
13835;DHT22;6988;52.614;13.500;2023-06-14T16:31:59;22.80;90.90
13835;DHT22;6988;52.614;13.500;2023-06-14T16:36:50;22.80;91.70
13835;DHT22;6988;52.614;13.500;2023-06-14T16:41:42;22.70;90.50
13835;DHT22;6988;52.614;13.500;2023-06-14T16:46:35;22.50;91.50
13835;DHT22;6988;52.614;13.500;2023-06-14T16:51:27;22.50;92.00
13835;DHT22;6988;52.614;13.500;2023-06-14T16:56:19;22.40;92.90
13835;DHT22;6988;52.614;13.500;2023-06-14T17:01:11;22.30;94.20
13835;DHT22;6988;52.614;13.500;2023-06-14T17:06:05;22.20;94.40
13835;DHT22;6988;52.614;13.500;2023-06-14T17:10:57;22.10;96.80
13835;DHT22;6988;52.614;13.500;2023-06-14T17:15:49;22.00;96.60
13835;DHT22;6988;52.614;13.500;2023-06-14T17:20:41;22.00;96.60
13835;DHT22;6988;52.614;13.500;2023-06-14T17:25:34;21.70;96.60
13835;DHT22;6988;52.614;13.500;2023-06-14T17:30:27;21.70;97.30
13835;DHT22;6988;52.614;13.500;2023-06-14T17:35:18;21.50;97.50
13835;DHT22;6988;52.614;13.500;2023-06-14T17:40:11;21.40;98.10
13835;DHT22;6988;52.614;13.500;2023-06-14T17:45:05;21.30;99.90
13835;DHT22;6988;52.614;13.500;2023-06-14T17:49:58;21.00;99.90
13835;DHT22;6988;52.614;13.500;2023-06-14T17:54:53;20.80;99.90
13835;DHT22;6988;52.614;13.500;2023-06-14T17:59:45;20.60;99.90
13835;DHT22;6988;52.614;13.500;2023-06-14T18:04:38;20.30;99.90
13835;DHT22;6988;52.614;13.500;2023-06-14T18:09:30;20.20;99.90
13835;DHT22;6988;52.614;13.500;2023-06-14T18:14:22;20.10;99.90
13835;DHT22;6988;52.614;13.500;2023-06-14T18:19:14;19.90;99.90
13835;DHT22;6988;52.614;13.500;2023-06-14T18:24:08;19.90;99.90
13835;DHT22;6988;52.614;13.500;2023-06-14T18:29:03;19.80;99.90
13835;DHT22;6988;52.614;13.500;2023-06-14T18:33:55;19.70;99.90
13835;DHT22;6988;52.614;13.500;2023-06-14T18:38:47;19.50;99.90
13835;DHT22;6988;52.614;13.500;2023-06-14T18:43:40;19.60;99.90
13835;DHT22;6988;52.614;13.500;2023-06-14T18:48:32;19.50;99.90
13835;DHT22;6988;52.614;13.500;2023-06-14T18:53:23;19.40;99.90
13835;DHT22;6988;52.614;13.500;2023-06-14T18:58:17;19.40;99.90
13835;DHT22;6988;52.614;13.500;2023-06-14T19:03:10;19.30;99.90
13835;DHT22;6988;52.614;13.500;2023-06-14T19:08:02;19.30;99.90
13835;DHT22;6988;52.614;13.500;2023-06-14T19:12:54;19.30;99.90
13835;DHT22;6988;52.614;13.500;2023-06-14T19:17:55;19.10;99.90
13835;DHT22;6988;52.614;13.500;2023-06-14T19:22:48;19.20;99.90
13835;DHT22;6988;52.614;13.500;2023-06-14T19:27:40;19.10;99.90
13835;DHT22;6988;52.614;13.500;2023-06-14T19:32:32;19.10;99.90
13835;DHT22;6988;52.614;13.500;2023-06-14T19:37:25;19.00;99.90
13835;DHT22;6988;52.614;13.500;2023-06-14T19:42:19;19.00;99.90
13835;DHT22;6988;52.614;13.500;2023-06-14T19:47:10;19.00;99.90
13835;DHT22;6988;52.614;13.500;2023-06-14T19:52:02;18.90;99.90
13835;DHT22;6988;52.614;13.500;2023-06-14T19:56:55;19.00;99.90
13835;DHT22;6988;52.614;13.500;2023-06-14T20:01:48;18.90;99.90
13835;DHT22;6988;52.614;13.500;2023-06-14T20:06:39;18.90;99.90
13835;DHT22;6988;52.614;13.500;2023-06-14T20:11:31;18.90;99.90
13835;DHT22;6988;52.614;13.500;2023-06-14T20:16:23;18.80;99.90
13835;DHT22;6988;52.614;13.500;2023-06-14T20:21:16;18.90;99.90
13835;DHT22;6988;52.614;13.500;2023-06-14T20:26:09;18.70;99.90
13835;DHT22;6988;52.614;13.500;2023-06-14T20:31:02;18.70;99.90
13835;DHT22;6988;52.614;13.500;2023-06-14T20:35:54;18.70;99.90
13835;DHT22;6988;52.614;13.500;2023-06-14T20:40:48;18.70;99.90
13835;DHT22;6988;52.614;13.500;2023-06-14T20:45:43;18.60;99.90
13835;DHT22;6988;52.614;13.500;2023-06-14T20:50:34;18.80;99.90
13835;DHT22;6988;52.614;13.500;2023-06-14T20:55:26;18.50;99.90
13835;DHT22;6988;52.614;13.500;2023-06-14T21:00:21;18.50;99.90
13835;DHT22;6988;52.614;13.500;2023-06-14T21:05:12;18.30;99.90
13835;DHT22;6988;52.614;13.500;2023-06-14T21:10:05;18.30;99.90
13835;DHT22;6988;52.614;13.500;2023-06-14T21:14:57;18.20;99.90
13835;DHT22;6988;52.614;13.500;2023-06-14T21:19:50;18.20;99.90
13835;DHT22;6988;52.614;13.500;2023-06-14T21:24:42;18.20;99.90
13835;DHT22;6988;52.614;13.500;2023-06-14T21:29:34;18.20;99.90
13835;DHT22;6988;52.614;13.500;2023-06-14T21:34:26;18.10;99.90
13835;DHT22;6988;52.614;13.500;2023-06-14T21:39:20;18.10;99.90
13835;DHT22;6988;52.614;13.500;2023-06-14T21:44:12;18.10;99.90
13835;DHT22;6988;52.614;13.500;2023-06-14T22:04:00;17.80;99.90
13835;DHT22;6988;52.614;13.500;2023-06-14T22:08:52;17.80;99.90
13835;DHT22;6988;52.614;13.500;2023-06-14T22:13:44;17.60;99.90
13835;DHT22;6988;52.614;13.500;2023-06-14T22:18:37;17.60;99.90
13835;DHT22;6988;52.614;13.500;2023-06-14T22:23:32;17.50;99.90
13835;DHT22;6988;52.614;13.500;2023-06-14T22:28:27;17.50;99.90
13835;DHT22;6988;52.614;13.500;2023-06-14T22:33:29;17.50;99.90
13835;DHT22;6988;52.614;13.500;2023-06-14T22:38:20;17.50;99.90
13835;DHT22;6988;52.614;13.500;2023-06-14T22:43:14;17.40;99.90
13835;DHT22;6988;52.614;13.500;2023-06-14T22:48:06;17.40;99.90
13835;DHT22;6988;52.614;13.500;2023-06-14T22:52:58;17.40;99.90
13835;DHT22;6988;52.614;13.500;2023-06-14T22:57:55;17.30;99.90
13835;DHT22;6988;52.614;13.500;2023-06-14T23:02:48;17.20;99.90
13835;DHT22;6988;52.614;13.500;2023-06-14T23:07:40;17.10;99.90
13835;DHT22;6988;52.614;13.500;2023-06-14T23:12:33;17.00;99.90
13835;DHT22;6988;52.614;13.500;2023-06-14T23:17:25;16.90;99.90
13835;DHT22;6988;52.614;13.500;2023-06-14T23:22:22;16.90;99.90
13835;DHT22;6988;52.614;13.500;2023-06-14T23:27:17;16.70;99.90
13835;DHT22;6988;52.614;13.500;2023-06-14T23:32:14;16.70;99.90
13835;DHT22;6988;52.614;13.500;2023-06-14T23:37:06;16.70;99.90
13835;DHT22;6988;52.614;13.500;2023-06-14T23:42:00;16.70;99.90
13835;DHT22;6988;52.614;13.500;2023-06-14T23:46:52;16.70;99.90
13835;DHT22;6988;52.614;13.500;2023-06-14T23:51:46;16.70;99.90
13835;DHT22;6988;52.614;13.500;2023-06-14T23:56:38;16.60;99.90
